Saint Charles, MO (63304)

4:12 PM CDT on April 21, 2015 (GMT -0500)
COTTLEVILLE/HARVESTER | | Change Station
CLOSE
Current Station
Personal Weather Station
Location: St. Charles, MO
Elevation: 602 ft
Nearby Weather Stations

Elev 602 ft 38.74 °N, 90.62 °W | Updated 4 seconds ago

Mostly Cloudy
Mostly Cloudy
67.1 °F
Feels Like 67.1 °F
N
10.5
Wind Variable Wind from WSW
Gusts 12.3 mph

Today
High -- | Low -- °F
--% Chance of Precip.
Yesterday
High -- | Low -- °F
Precip. -- in
6:18 AM 7:45 PM
Waxing Crescent, 12% visible
Pressure 29.75 in
Visibility 10.0 miles
Clouds Mostly Cloudy 11000 ft
Dew Point 31 °F
Humidity 26%
Rainfall 0.00 in
Snow Depth Not available.
UV 3 out of 12
Pollen 11.00 out of 12
Air Quality Not available.
Flu Activity Local Activity
METAR KSUS 212054Z 27015G22KT 10SM BKN110 19/01 A2976 RMK AO2 SLP075 T01940011 58019

More Conditions Fewer Conditions

Pressure 29.75 in
Visibility 10.0 miles
Clouds Mostly Cloudy 11000 ft
Dew Point 31 °F
Humidity 26%
Rainfall 0.00 in
Snow Depth Not available.
UV 3 out of 12
Pollen 11.00 out of 12
Air Quality Not available.
Flu Activity Local Activity
METAR KSUS 212054Z 27015G22KT 10SM BKN110 19/01 A2976 RMK AO2 SLP075 T01940011 58019

More Conditions Fewer Conditions

10-Day Weather Forecast

Almanac

Astronomy

Apr. 21, 2015 Rise Set
Actual Time
Civil Twilight
Nautical Twilight
Astronomical Twilight
Moon
Length of Visible Light
Length of Day
Tomorrow will be .
, % of the Moon is Illuminated

Today's Extremes

State Highs State Lows

Community

WunderPhotos

Upload Photos

1,815,549 photos uploaded!

WunderBlogs® & News

Nearby

Air Quality

  Air Quality AQ Index Pollutant
Not available.

Snow Depth

Station Depth Elevation

Earthquake Activity

City Distance Mag. Time & Date
Minimum magnitude displayed is 2.5.

Coastal Water Temperatures

Place Temperature

Stations

Nearby Weather Stations

Station Location Temp. Windchill Dew Point Humidity Wind Precip. Elev Updated Type